Station History

Weather Underground - logo

Station Historical Data
Daily Summary for November 12, 2017 Units:  English    Metric   Both
« Previous Day
Next Day »
Daily Weekly Monthly Yearly Custom
  High: Low: Average:
Temperature: 66.1 °F 46.3 °F 53.8 °F
Dew Point: 54.6 °F 44.1 °F 48.8 °F
Humidity: 93 % 62 % 84 %
Wind Speed: 3.5 mph 0.0 mph 0.3 mph
Wind Gust: 3.5 mph - -
Wind:- - South
Pressure: 30.17 in 30.07 in -
Precipitation: 0.00 in    
Historical Graphs
 
 
Tabular Data for November 12, 2017
Time Temperature Dew Point Pressure Wind Wind Speed Wind Gust Humidity Rainfall Rate (Hourly)
00:03 48.4 °F 45.9 °F 30.07 in Calm     91 % 0.00 in
00:08 48.3 °F 45.8 °F 30.07 in Calm     91 % 0.00 in
00:13 48.1 °F 45.6 °F 30.07 in Calm     91 % 0.00 in
00:18 48.0 °F 45.5 °F 30.08 in Calm     91 % 0.00 in
00:23 47.9 °F 45.4 °F 30.08 in Calm     91 % 0.00 in
00:28 47.8 °F 45.3 °F 30.08 in Calm     91 % 0.00 in
00:33 47.6 °F 45.1 °F 30.08 in Calm     91 % 0.00 in
00:38 47.5 °F 45.0 °F 30.08 in Calm     91 % 0.00 in
00:43 47.5 °F 45.3 °F 30.08 in Calm     92 % 0.00 in
00:48 47.5 °F 45.3 °F 30.08 in Calm     92 % 0.00 in
00:53 47.7 °F 45.5 °F 30.09 in Calm     92 % 0.00 in
00:58 47.8 °F 45.9 °F 30.09 in Calm     93 % 0.00 in
01:03 47.9 °F 45.7 °F 30.09 in Calm     92 % 0.00 in
01:08 48.0 °F 45.8 °F 30.09 in Calm     92 % 0.00 in
01:13 48.0 °F 45.8 °F 30.09 in Calm     92 % 0.00 in
01:18 48.0 °F 45.8 °F 30.09 in Calm     92 % 0.00 in
01:23 48.1 °F 45.6 °F 30.09 in Calm     91 % 0.00 in
01:28 48.1 °F 45.6 °F 30.09 in Calm     91 % 0.00 in
01:33 48.1 °F 45.6 °F 30.09 in Calm     91 % 0.00 in
01:38 48.1 °F 45.6 °F 30.09 in Calm     91 % 0.00 in
01:48 48.0 °F 45.5 °F 30.09 in Calm     91 % 0.00 in
01:53 47.9 °F 45.7 °F 30.09 in Calm     92 % 0.00 in
01:58 47.9 °F 45.7 °F 30.09 in Calm     92 % 0.00 in
02:03 47.9 °F 45.7 °F 30.09 in Calm     92 % 0.00 in
02:08 47.9 °F 45.7 °F 30.09 in Calm     92 % 0.00 in
02:13 47.9 °F 45.7 °F 30.09 in Calm     92 % 0.00 in
02:18 47.9 °F 45.7 °F 30.09 in Calm     92 % 0.00 in
02:23 47.7 °F 45.5 °F 30.09 in Calm     92 % 0.00 in
02:28 47.7 °F 45.5 °F 30.09 in Calm     92 % 0.00 in
02:33 47.7 °F 45.5 °F 30.09 in Calm     92 % 0.00 in
02:38 47.6 °F 45.4 °F 30.09 in Calm     92 % 0.00 in
02:43 47.6 °F 45.4 °F 30.09 in Calm     92 % 0.00 in
02:48 47.5 °F 45.3 °F 30.09 in Calm     92 % 0.00 in
02:53 47.3 °F 45.1 °F 30.09 in Calm     92 % 0.00 in
02:58 47.1 °F 44.6 °F 30.09 in Calm     91 % 0.00 in
03:03 46.9 °F 44.7 °F 30.09 in Calm     92 % 0.00 in
03:08 47.0 °F 44.8 °F 30.09 in Calm     92 % 0.00 in
03:13 47.1 °F 44.9 °F 30.08 in Calm     92 % 0.00 in
03:19 47.2 °F 45.0 °F 30.08 in Calm     92 % 0.00 in
03:24 47.4 °F 45.2 °F 30.08 in Calm     92 % 0.00 in
03:29 47.4 °F 45.2 °F 30.08 in Calm     92 % 0.00 in
03:34 47.5 °F 45.3 °F 30.08 in Calm     92 % 0.00 in
03:39 47.5 °F 45.3 °F 30.09 in Calm     92 % 0.00 in
03:44 47.5 °F 45.3 °F 30.09 in Calm     92 % 0.00 in
03:49 47.6 °F 45.4 °F 30.08 in Calm     92 % 0.00 in
03:54 47.7 °F 45.8 °F 30.09 in Calm     93 % 0.00 in
03:59 47.8 °F 45.9 °F 30.09 in Calm     93 % 0.00 in
04:04 47.9 °F 46.0 °F 30.09 in Calm     93 % 0.00 in
04:09 47.5 °F 45.3 °F 30.09 in Calm     92 % 0.00 in
04:14 47.2 °F 45.0 °F 30.09 in Calm     92 % 0.00 in
04:19 47.2 °F 45.0 °F 30.10 in Calm     92 % 0.00 in
04:24 47.1 °F 44.9 °F 30.10 in Calm     92 % 0.00 in
04:29 47.1 °F 45.2 °F 30.10 in Calm     93 % 0.00 in
04:34 47.0 °F 45.1 °F 30.10 in Calm     93 % 0.00 in
04:39 47.0 °F 45.1 °F 30.10 in Calm     93 % 0.00 in
04:44 47.1 °F 45.2 °F 30.10 in Calm     93 % 0.00 in
04:49 47.0 °F 45.1 °F 30.10 in Calm     93 % 0.00 in
04:54 46.8 °F 44.6 °F 30.10 in Calm     92 % 0.00 in
04:59 46.8 °F 44.6 °F 30.10 in Calm     92 % 0.00 in
05:04 46.7 °F 44.8 °F 30.10 in Calm     93 % 0.00 in
05:09 46.8 °F 44.9 °F 30.10 in Calm     93 % 0.00 in
05:14 46.9 °F 45.0 °F 30.10 in Calm     93 % 0.00 in
05:19 47.1 °F 45.2 °F 30.10 in Calm     93 % 0.00 in
05:24 47.2 °F 45.3 °F 30.10 in Calm     93 % 0.00 in
05:29 47.4 °F 45.5 °F 30.10 in Calm     93 % 0.00 in
05:34 47.5 °F 45.6 °F 30.10 in Calm     93 % 0.00 in
05:39 47.6 °F 45.7 °F 30.09 in Calm     93 % 0.00 in
05:44 47.8 °F 45.9 °F 30.09 in Calm     93 % 0.00 in
05:49 47.8 °F 45.9 °F 30.09 in Calm     93 % 0.00 in
05:54 47.9 °F 46.0 °F 30.09 in Calm     93 % 0.00 in
05:59 47.9 °F 46.0 °F 30.09 in Calm     93 % 0.00 in
06:04 48.1 °F 46.2 °F 30.09 in Calm     93 % 0.00 in
06:09 48.2 °F 46.3 °F 30.09 in Calm     93 % 0.00 in
06:14 48.3 °F 46.4 °F 30.09 in Calm     93 % 0.00 in
06:19 48.5 °F 46.6 °F 30.09 in Calm     93 % 0.00 in
06:24 48.6 °F 46.7 °F 30.10 in Calm     93 % 0.00 in
06:29 48.5 °F 46.3 °F 30.10 in Calm     92 % 0.00 in
06:34 48.2 °F 46.0 °F 30.09 in Calm     92 % 0.00 in
06:39 48.1 °F 45.9 °F 30.09 in Calm     92 % 0.00 in
06:41 48.1 °F 45.9 °F 30.09 in Calm     92 % 0.00 in
06:46 48.1 °F 45.9 °F 30.09 in Calm     92 % 0.00 in
06:51 48.3 °F 46.4 °F 30.09 in Calm     93 % 0.00 in
06:56 48.4 °F 46.5 °F 30.10 in Calm     93 % 0.00 in
07:01 48.5 °F 46.6 °F 30.10 in Calm     93 % 0.00 in
07:06 48.4 °F 46.2 °F 30.11 in Calm     92 % 0.00 in
07:11 48.4 °F 46.5 °F 30.11 in Calm     93 % 0.00 in
07:16 48.4 °F 46.5 °F 30.11 in Calm     93 % 0.00 in
07:21 48.3 °F 46.1 °F 30.11 in Calm     92 % 0.00 in
07:26 48.4 °F 46.5 °F 30.11 in Calm     93 % 0.00 in
07:31 48.7 °F 46.8 °F 30.12 in Calm     93 % 0.00 in
07:36 48.9 °F 47.0 °F 30.12 in Calm     93 % 0.00 in
07:41 49.2 °F 47.3 °F 30.12 in Calm     93 % 0.00 in
07:46 49.5 °F 47.6 °F 30.13 in Calm     93 % 0.00 in
07:51 49.7 °F 47.8 °F 30.13 in Calm     93 % 0.00 in
07:56 49.8 °F 47.6 °F 30.13 in Calm     92 % 0.00 in
08:01 50.1 °F 47.9 °F 30.13 in Calm     92 % 0.00 in
08:06 50.5 °F 48.3 °F 30.13 in Calm     92 % 0.00 in
08:11 50.9 °F 48.7 °F 30.13 in Calm     92 % 0.00 in
08:16 51.3 °F 48.8 °F 30.14 in Calm     91 % 0.00 in
08:21 51.7 °F 49.2 °F 30.14 in Calm     91 % 0.00 in
08:26 52.1 °F 49.3 °F 30.14 in Calm     90 % 0.00 in
08:31 52.4 °F 49.6 °F 30.14 in Calm     90 % 0.00 in
08:36 52.8 °F 50.2 °F 30.14 in Calm     91 % 0.00 in
08:41 53.0 °F 50.1 °F 30.15 in Calm   0.3 mph 90 % 0.00 in
08:46 53.3 °F 50.4 °F 30.15 in Calm     90 % 0.00 in
08:51 53.6 °F 50.4 °F 30.15 in Calm     89 % 0.00 in
08:59 54.0 °F 50.8 °F 30.15 in SSE 1.2 mph   89 % 0.00 in
09:04 54.2 °F 50.7 °F 30.15 in Calm     88 % 0.00 in
09:09 54.4 °F 50.9 °F 30.15 in Calm     88 % 0.00 in
09:14 54.7 °F 50.9 °F 30.14 in Calm     87 % 0.00 in
09:19 55.1 °F 51.3 °F 30.14 in SSE 1.2 mph 1.2 mph 87 % 0.00 in
09:24 55.4 °F 51.3 °F 30.15 in Calm     86 % 0.00 in
09:29 55.8 °F 51.7 °F 30.15 in Calm     86 % 0.00 in
09:34 56.2 °F 51.7 °F 30.15 in SSE 1.2 mph   85 % 0.00 in
09:39 56.5 °F 51.7 °F 30.15 in ESE 1.2 mph 1.2 mph 84 % 0.00 in
09:44 56.8 °F 52.0 °F 30.15 in ESE 2.3 mph 2.3 mph 84 % 0.00 in
09:49 56.9 °F 51.8 °F 30.15 in SE 1.2 mph 1.2 mph 83 % 0.00 in
09:54 57.2 °F 51.8 °F 30.15 in East 2.3 mph 2.3 mph 82 % 0.00 in
09:59 57.5 °F 52.0 °F 30.15 in East 1.0 mph 1.0 mph 82 % 0.00 in
10:04 57.8 °F 52.0 °F 30.14 in East 3.5 mph 3.5 mph 81 % 0.00 in
10:09 58.1 °F 52.0 °F 30.14 in East 3.5 mph 3.5 mph 80 % 0.00 in
10:14 58.4 °F 52.3 °F 30.14 in East 2.3 mph 2.3 mph 80 % 0.00 in
10:19 58.6 °F 52.1 °F 30.14 in East 1.2 mph 1.2 mph 79 % 0.00 in
10:24 59.0 °F 52.5 °F 30.14 in East 3.5 mph 3.5 mph 79 % 0.00 in
10:29 59.3 °F 52.4 °F 30.14 in East 1.2 mph   78 % 0.00 in
10:34 59.6 °F 52.4 °F 30.14 in East 1.2 mph   77 % 0.00 in
10:39 59.9 °F 52.7 °F 30.14 in East 1.2 mph 1.2 mph 77 % 0.00 in
10:44 60.2 °F 53.0 °F 30.14 in Calm   0.2 mph 77 % 0.00 in
10:49 60.5 °F 53.3 °F 30.14 in East 1.0 mph   77 % 0.00 in
10:54 60.7 °F 53.1 °F 30.13 in East 1.2 mph 1.2 mph 76 % 0.00 in
10:59 60.9 °F 52.9 °F 30.13 in East 1.2 mph   75 % 0.00 in
11:04 61.2 °F 53.2 °F 30.12 in East 2.3 mph 2.3 mph 75 % 0.00 in
11:09 61.3 °F 52.9 °F 30.12 in East 1.2 mph   74 % 0.00 in
11:14 61.6 °F 53.6 °F 30.11 in South 3.0 mph 3.0 mph 75 % 0.00 in
11:19 62.0 °F 53.6 °F 30.11 in Calm     74 % 0.00 in
11:24 62.3 °F 53.2 °F 30.11 in Calm   0.2 mph 72 % 0.00 in
11:30 62.4 °F 53.3 °F 30.11 in Calm     72 % 0.00 in
11:35 62.5 °F 53.0 °F 30.11 in Calm     71 % 0.00 in
11:40 62.8 °F 53.6 °F 30.11 in Calm     72 % 0.00 in
11:45 63.0 °F 53.4 °F 30.11 in Calm     71 % 0.00 in
11:49 63.1 °F 53.2 °F 30.11 in Calm     70 % 0.00 in
11:54 63.4 °F 53.4 °F 30.10 in Calm     70 % 0.00 in
11:59 63.7 °F 53.7 °F 30.10 in SSE 2.3 mph 2.3 mph 70 % 0.00 in
12:04 64.0 °F 54.0 °F 30.10 in SE 1.2 mph   70 % 0.00 in
12:09 64.3 °F 54.3 °F 30.09 in SSE 3.5 mph 3.5 mph 70 % 0.00 in
12:14 64.3 °F 53.9 °F 30.09 in Calm     69 % 0.00 in
12:19 64.6 °F 53.8 °F 30.09 in NW 1.2 mph 1.2 mph 68 % 0.00 in
12:24 64.7 °F 53.9 °F 30.10 in ENE 1.2 mph   68 % 0.00 in
12:29 64.9 °F 54.1 °F 30.09 in SE 2.3 mph 2.3 mph 68 % 0.00 in
12:34 64.9 °F 53.7 °F 30.09 in NW 2.3 mph 2.3 mph 67 % 0.00 in
12:39 64.9 °F 54.1 °F 30.09 in WSW 1.2 mph 1.2 mph 68 % 0.00 in
12:44 64.9 °F 53.7 °F 30.09 in SSE 2.3 mph 2.3 mph 67 % 0.00 in
12:49 64.9 °F 54.1 °F 30.09 in Calm     68 % 0.00 in
12:54 65.2 °F 54.0 °F 30.09 in NW 1.2 mph   67 % 0.00 in
12:59 65.4 °F 54.6 °F 30.09 in Calm     68 % 0.00 in
13:04 65.5 °F 53.4 °F 30.09 in NW 1.2 mph 1.2 mph 65 % 0.00 in
13:09 65.3 °F 53.2 °F 30.09 in WNW 1.0 mph 1.0 mph 65 % 0.00 in
13:14 65.5 °F 53.8 °F 30.09 in Calm     66 % 0.00 in
13:19 65.9 °F 54.2 °F 30.09 in SSE 1.2 mph 1.2 mph 66 % 0.00 in
13:24 66.0 °F 53.0 °F 30.09 in SE 1.2 mph   63 % 0.00 in
13:29 65.6 °F 52.2 °F 30.09 in WNW 1.2 mph 1.2 mph 62 % 0.00 in
13:34 65.5 °F 52.6 °F 30.09 in NW 1.2 mph 1.2 mph 63 % 0.00 in
13:39 65.6 °F 52.2 °F 30.09 in Calm     62 % 0.00 in
13:44 65.7 °F 52.8 °F 30.09 in NNW 1.0 mph 1.0 mph 63 % 0.00 in
13:49 65.7 °F 53.6 °F 30.08 in Calm     65 % 0.00 in
13:54 66.0 °F 52.6 °F 30.08 in South 2.3 mph 2.3 mph 62 % 0.00 in
13:59 66.0 °F 53.5 °F 30.09 in SSE 1.2 mph   64 % 0.00 in
14:04 66.0 °F 52.6 °F 30.09 in Calm     62 % 0.00 in
14:09 66.0 °F 52.6 °F 30.09 in North 1.2 mph   62 % 0.00 in
14:14 65.9 °F 53.4 °F 30.09 in North 1.2 mph   64 % 0.00 in
14:19 66.1 °F 53.1 °F 30.09 in North 1.2 mph   63 % 0.00 in
14:24 66.1 °F 53.1 °F 30.09 in Calm   0.3 mph 63 % 0.00 in
14:29 65.8 °F 52.4 °F 30.08 in NNW 1.2 mph   62 % 0.00 in
14:34 65.6 °F 53.1 °F 30.08 in NW 1.2 mph 1.2 mph 64 % 0.00 in
14:39 65.4 °F 52.9 °F 30.08 in Calm     64 % 0.00 in
14:45 65.4 °F 52.5 °F 30.08 in Calm     63 % 0.00 in
14:50 65.5 °F 52.1 °F 30.08 in Calm     62 % 0.00 in
14:55 65.5 °F 53.0 °F 30.08 in Calm     64 % 0.00 in
15:00 65.3 °F 52.8 °F 30.08 in SW 1.2 mph 1.2 mph 64 % 0.00 in
15:05 65.2 °F 52.7 °F 30.08 in WNW 1.2 mph 1.2 mph 64 % 0.00 in
15:10 65.2 °F 52.7 °F 30.08 in Calm     64 % 0.00 in
15:15 65.0 °F 52.5 °F 30.08 in Calm     64 % 0.00 in
15:20 64.9 °F 52.4 °F 30.08 in Calm     64 % 0.00 in
15:25 64.9 °F 52.4 °F 30.08 in WSW 1.2 mph   64 % 0.00 in
15:30 64.8 °F 51.9 °F 30.08 in Calm     63 % 0.00 in
15:35 64.8 °F 52.3 °F 30.08 in Calm     64 % 0.00 in
15:40 64.6 °F 52.1 °F 30.08 in Calm     64 % 0.00 in
15:45 64.5 °F 52.5 °F 30.08 in Calm     65 % 0.00 in
15:50 64.3 °F 52.7 °F 30.08 in Calm     66 % 0.00 in
15:55 64.1 °F 52.5 °F 30.08 in Calm     66 % 0.00 in
16:00 64.0 °F 52.0 °F 30.08 in Calm     65 % 0.00 in
16:05 63.8 °F 52.2 °F 30.08 in Calm     66 % 0.00 in
16:10 63.7 °F 52.5 °F 30.08 in Calm     67 % 0.00 in
16:15 63.4 °F 52.2 °F 30.08 in Calm     67 % 0.00 in
16:20 63.2 °F 52.1 °F 30.09 in Calm     67 % 0.00 in
16:25 62.9 °F 52.2 °F 30.09 in Calm     68 % 0.00 in
16:30 62.6 °F 52.3 °F 30.09 in Calm     69 % 0.00 in
16:35 62.2 °F 52.7 °F 30.09 in Calm     71 % 0.00 in
16:40 61.8 °F 53.1 °F 30.09 in Calm     73 % 0.00 in
16:45 61.3 °F 52.6 °F 30.09 in Calm     73 % 0.00 in
16:50 60.7 °F 52.0 °F 30.09 in Calm     73 % 0.00 in
16:55 60.1 °F 52.1 °F 30.09 in Calm     75 % 0.00 in
17:00 59.5 °F 52.3 °F 30.09 in Calm     77 % 0.00 in
17:05 59.0 °F 51.8 °F 30.09 in Calm     77 % 0.00 in
17:10 58.4 °F 51.9 °F 30.09 in Calm     79 % 0.00 in
17:11 58.4 °F 51.9 °F 30.09 in Calm     79 % 0.00 in
17:16 57.9 °F 51.8 °F 30.10 in Calm     80 % 0.00 in
17:21 57.4 °F 51.9 °F 30.10 in Calm     82 % 0.00 in
17:26 57.1 °F 51.7 °F 30.11 in Calm     82 % 0.00 in
17:31 56.9 °F 51.8 °F 30.11 in Calm     83 % 0.00 in
17:36 56.7 °F 51.6 °F 30.11 in Calm     83 % 0.00 in
17:41 56.3 °F 51.2 °F 30.11 in Calm     83 % 0.00 in
17:46 55.9 °F 51.1 °F 30.11 in Calm     84 % 0.00 in
17:50 55.7 °F 51.3 °F 30.11 in Calm     85 % 0.00 in
17:55 55.4 °F 51.0 °F 30.11 in Calm     85 % 0.00 in
18:00 55.2 °F 50.8 °F 30.11 in Calm     85 % 0.00 in
18:05 55.0 °F 50.9 °F 30.11 in Calm     86 % 0.00 in
18:10 54.7 °F 50.6 °F 30.11 in Calm     86 % 0.00 in
18:15 54.3 °F 50.2 °F 30.11 in Calm     86 % 0.00 in
18:20 54.2 °F 50.4 °F 30.12 in Calm     87 % 0.00 in
18:25 54.1 °F 50.3 °F 30.12 in Calm     87 % 0.00 in
18:30 53.8 °F 50.0 °F 30.12 in Calm     87 % 0.00 in
18:35 53.5 °F 49.7 °F 30.12 in Calm     87 % 0.00 in
18:40 53.2 °F 49.4 °F 30.12 in Calm     87 % 0.00 in
18:45 53.0 °F 49.5 °F 30.12 in Calm     88 % 0.00 in
18:50 52.9 °F 49.7 °F 30.12 in Calm     89 % 0.00 in
18:55 52.7 °F 49.8 °F 30.12 in Calm     90 % 0.00 in
19:00 52.5 °F 49.7 °F 30.12 in Calm     90 % 0.00 in
19:05 52.2 °F 49.1 °F 30.12 in Calm     89 % 0.00 in
19:10 51.9 °F 48.8 °F 30.12 in Calm     89 % 0.00 in
19:15 51.6 °F 48.5 °F 30.12 in Calm     89 % 0.00 in
19:20 51.5 °F 48.7 °F 30.12 in Calm     90 % 0.00 in
19:22 51.5 °F 48.7 °F 30.12 in Calm     90 % 0.00 in
19:23 51.5 °F 48.7 °F 30.12 in Calm     90 % 0.00 in
19:27 51.4 °F 48.6 °F 30.12 in Calm     90 % 0.00 in
19:32 51.4 °F 48.6 °F 30.12 in Calm     90 % 0.00 in
19:37 51.3 °F 48.5 °F 30.13 in Calm     90 % 0.00 in
19:42 50.8 °F 47.7 °F 30.12 in Calm     89 % 0.00 in
19:47 50.6 °F 47.8 °F 30.13 in Calm     90 % 0.00 in
19:52 50.6 °F 48.1 °F 30.13 in Calm     91 % 0.00 in
19:57 50.6 °F 48.1 °F 30.13 in Calm     91 % 0.00 in
20:02 50.8 °F 48.3 °F 30.13 in Calm     91 % 0.00 in
20:07 50.9 °F 48.4 °F 30.13 in Calm     91 % 0.00 in
20:12 50.9 °F 48.1 °F 30.13 in Calm     90 % 0.00 in
20:17 50.9 °F 48.1 °F 30.13 in Calm     90 % 0.00 in
20:22 50.5 °F 47.7 °F 30.13 in Calm     90 % 0.00 in
20:27 50.3 °F 47.5 °F 30.14 in Calm     90 % 0.00 in
20:32 50.2 °F 47.4 °F 30.14 in Calm     90 % 0.00 in
20:37 50.1 °F 47.6 °F 30.14 in Calm     91 % 0.00 in
20:42 49.9 °F 47.4 °F 30.14 in Calm     91 % 0.00 in
20:43 49.9 °F 47.4 °F 30.14 in Calm     91 % 0.00 in
20:49 49.7 °F 47.2 °F 30.14 in Calm     91 % 0.00 in
20:54 49.6 °F 47.1 °F 30.14 in Calm     91 % 0.00 in
20:59 49.6 °F 47.4 °F 30.15 in Calm     92 % 0.00 in
21:04 49.5 °F 47.0 °F 30.15 in Calm     91 % 0.00 in
21:09 49.4 °F 47.2 °F 30.15 in Calm     92 % 0.00 in
21:14 49.3 °F 47.1 °F 30.15 in Calm     92 % 0.00 in
21:19 49.1 °F 46.9 °F 30.15 in Calm     92 % 0.00 in
21:24 48.9 °F 46.7 °F 30.15 in Calm     92 % 0.00 in
21:29 48.6 °F 46.1 °F 30.15 in Calm     91 % 0.00 in
21:34 48.3 °F 45.8 °F 30.15 in Calm     91 % 0.00 in
21:39 48.1 °F 45.6 °F 30.15 in Calm     91 % 0.00 in
21:44 47.9 °F 45.4 °F 30.15 in Calm     91 % 0.00 in
21:49 48.1 °F 45.9 °F 30.15 in Calm     92 % 0.00 in
21:54 48.1 °F 45.9 °F 30.15 in Calm     92 % 0.00 in
21:59 48.4 °F 46.5 °F 30.16 in Calm     93 % 0.00 in
22:04 48.5 °F 46.6 °F 30.16 in Calm     93 % 0.00 in
22:09 48.6 °F 46.7 °F 30.16 in Calm     93 % 0.00 in
22:14 48.6 °F 46.4 °F 30.16 in Calm     92 % 0.00 in
22:19 48.5 °F 46.3 °F 30.16 in Calm     92 % 0.00 in
22:24 48.2 °F 45.7 °F 30.16 in Calm     91 % 0.00 in
22:29 47.7 °F 45.2 °F 30.16 in Calm     91 % 0.00 in
22:34 47.3 °F 44.8 °F 30.16 in Calm     91 % 0.00 in
22:39 47.0 °F 44.5 °F 30.16 in Calm     91 % 0.00 in
22:44 47.1 °F 44.9 °F 30.16 in Calm     92 % 0.00 in
22:49 47.1 °F 44.9 °F 30.16 in Calm     92 % 0.00 in
22:54 46.9 °F 44.4 °F 30.16 in Calm     91 % 0.00 in
22:59 46.6 °F 44.4 °F 30.16 in Calm     92 % 0.00 in
23:04 46.4 °F 44.2 °F 30.16 in Calm     92 % 0.00 in
23:09 46.3 °F 44.1 °F 30.16 in Calm     92 % 0.00 in
23:14 46.3 °F 44.1 °F 30.17 in Calm     92 % 0.00 in
23:19 46.6 °F 44.7 °F 30.17 in Calm     93 % 0.00 in
23:24 47.0 °F 45.1 °F 30.17 in Calm     93 % 0.00 in
23:29 47.3 °F 45.4 °F 30.17 in Calm     93 % 0.00 in
23:34 47.6 °F 45.7 °F 30.17 in Calm     93 % 0.00 in
23:39 47.8 °F 45.9 °F 30.17 in Calm     93 % 0.00 in
23:44 48.0 °F 46.1 °F 30.17 in Calm     93 % 0.00 in
23:49 47.8 °F 45.6 °F 30.17 in Calm     92 % 0.00 in
23:54 47.5 °F 45.3 °F 30.17 in Calm     92 % 0.00 in
23:59 47.1 °F 44.6 °F 30.17 in Calm     91 % 0.00 in
Park Place, Exeter, Tulare County, California, USA
Compliments of Weather Underground - 2.75 mb